Terminal Aerodrome Forecast
Issued by NWS

Home | Current Version | Previous Version | Text Only | Print | Product List | Glossary On
Versions: 1 2 3 4 5 6 7 8 9 10 11 12 13 14 15 16 17 18 19 20 21 22 23 24 25 26
000
FTUS43 KDTX 290853 AAA
TAFYIP
TAF AMD
KYIP 290853Z 2909/3006 14010KT P6SM OVC100
     FM291000 15011KT P6SM -FZRAPL OVC070
     FM291130 16012KT P6SM OVC090
     FM291600 21010KT 4SM -SHRA BR BKN018 OVC035
     FM292000 29014G20KT 3SM -SHSN BKN009 OVC025
     FM292300 30015G25KT 6SM -SN BKN025 OVC040
     FM300300 31013G23KT P6SM SCT025 OVC040=

USA.gov is the U.S. government's official web portal to all federal, state and local government web resources and services.